Terminal Aerodrome Forecast
Issued by NWS

Home | Current Version | Previous Version | Graphics & Text | Print | Product List | Glossary On
Versions: 1 2 3 4 5 6 7 8 9 10 11 12 13
788
FTUS42 KMHX 251720
TAFPGV
TAF
KPGV 251720Z 2518/2618 VRB03KT P6SM FEW045
     FM260900 00000KT 4SM BR SCT050
     FM261300 VRB03KT P6SM SCT200
      AMD LTD TO CLD VIS AND WIND=

USA.gov is the U.S. government's official web portal to all federal, state and local government web resources and services.